sensor_id;sensor_type;location;lat;lon;timestamp;pressure;altitude;pressure_sealevel;temperature;humidity
31092;BME280;67728;53.122;12.776;2024-01-30T00:00:28;101939.16;;;-0.56;100.00
31092;BME280;67728;53.122;12.776;2024-01-30T00:01:59;101944.09;;;-0.59;100.00
31092;BME280;67728;53.122;12.776;2024-01-30T00:03:32;101946.59;;;-0.61;100.00
31092;BME280;67728;53.122;12.776;2024-01-30T00:05:03;101944.78;;;-0.63;100.00
31092;BME280;67728;53.122;12.776;2024-01-30T00:06:35;101947.22;;;-0.65;100.00
31092;BME280;67728;53.122;12.776;2024-01-30T00:08:06;101937.13;;;-0.63;100.00
31092;BME280;67728;53.122;12.776;2024-01-30T00:09:38;101943.88;;;-0.64;100.00
31092;BME280;67728;53.122;12.776;2024-01-30T00:11:09;101943.88;;;-0.64;100.00
31092;BME280;67728;53.122;12.776;2024-01-30T00:12:41;101936.31;;;-0.62;100.00
31092;BME280;67728;53.122;12.776;2024-01-30T00:14:12;101945.66;;;-0.63;100.00
31092;BME280;67728;53.122;12.776;2024-01-30T00:15:44;101945.72;;;-0.61;100.00
31092;BME280;67728;53.122;12.776;2024-01-30T00:17:14;101946.38;;;-0.65;100.00
31092;BME280;67728;53.122;12.776;2024-01-30T00:18:47;101947.16;;;-0.66;100.00
31092;BME280;67728;53.122;12.776;2024-01-30T00:20:18;101948.78;;;-0.68;100.00
31092;BME280;67728;53.122;12.776;2024-01-30T00:21:50;101952.09;;;-0.69;100.00
31092;BME280;67728;53.122;12.776;2024-01-30T00:23:20;101945.25;;;-0.70;100.00
31092;BME280;67728;53.122;12.776;2024-01-30T00:24:52;101950.22;;;-0.73;100.00
31092;BME280;67728;53.122;12.776;2024-01-30T00:26:23;101955.16;;;-0.76;100.00
31092;BME280;67728;53.122;12.776;2024-01-30T00:27:54;101944.81;;;-0.79;100.00
31092;BME280;67728;53.122;12.776;2024-01-30T00:29:25;101944.56;;;-0.84;100.00
31092;BME280;67728;53.122;12.776;2024-01-30T00:31:00;101943.63;;;-0.86;100.00
31092;BME280;67728;53.122;12.776;2024-01-30T00:32:31;101943.63;;;-0.86;100.00
31092;BME280;67728;53.122;12.776;2024-01-30T00:34:04;101936.84;;;-0.85;100.00
31092;BME280;67728;53.122;12.776;2024-01-30T00:35:35;101937.66;;;-0.86;100.00
31092;BME280;67728;53.122;12.776;2024-01-30T00:37:06;101940.28;;;-0.85;100.00
31092;BME280;67728;53.122;12.776;2024-01-30T00:38:37;101937.66;;;-0.86;100.00
31092;BME280;67728;53.122;12.776;2024-01-30T00:40:09;101940.91;;;-0.89;100.00
31092;BME280;67728;53.122;12.776;2024-01-30T00:41:45;101938.16;;;-0.93;100.00
31092;BME280;67728;53.122;12.776;2024-01-30T00:43:17;101932.19;;;-0.94;100.00
31092;BME280;67728;53.122;12.776;2024-01-30T00:44:48;101939.81;;;-0.94;100.00
31092;BME280;67728;53.122;12.776;2024-01-30T00:46:19;101938.09;;;-0.95;100.00
31092;BME280;67728;53.122;12.776;2024-01-30T00:47:50;101944.91;;;-0.94;100.00
31092;BME280;67728;53.122;12.776;2024-01-30T00:49:23;101946.56;;;-0.94;100.00
31092;BME280;67728;53.122;12.776;2024-01-30T00:50:53;101947.38;;;-0.95;100.00
31092;BME280;67728;53.122;12.776;2024-01-30T00:52:25;101942.19;;;-0.97;100.00
31092;BME280;67728;53.122;12.776;2024-01-30T00:53:55;101938.78;;;-0.97;100.00
31092;BME280;67728;53.122;12.776;2024-01-30T00:55:27;101941.41;;;-0.96;100.00
31092;BME280;67728;53.122;12.776;2024-01-30T00:56:58;101948.28;;;-0.95;100.00
31092;BME280;67728;53.122;12.776;2024-01-30T00:58:29;101942.28;;;-0.95;100.00
31092;BME280;67728;53.122;12.776;2024-01-30T01:00:00;101937.94;;;-0.98;100.00
31092;BME280;67728;53.122;12.776;2024-01-30T01:01:32;101931.81;;;-1.01;100.00
31092;BME280;67728;53.122;12.776;2024-01-30T01:03:02;101933.41;;;-1.03;100.00
31092;BME280;67728;53.122;12.776;2024-01-30T01:04:35;101929.19;;;-1.03;100.00
31092;BME280;67728;53.122;12.776;2024-01-30T01:06:06;101934.28;;;-1.03;100.00
31092;BME280;67728;53.122;12.776;2024-01-30T01:07:38;101931.81;;;-1.01;100.00
31092;BME280;67728;53.122;12.776;2024-01-30T01:09:10;101933.56;;;-1.00;100.00
31092;BME280;67728;53.122;12.776;2024-01-30T01:10:42;101936.16;;;-0.99;100.00
31092;BME280;67728;53.122;12.776;2024-01-30T01:12:13;101933.56;;;-1.00;100.00
31092;BME280;67728;53.122;12.776;2024-01-30T01:13:44;101940.38;;;-0.99;100.00
31092;BME280;67728;53.122;12.776;2024-01-30T01:15:15;101937.69;;;-1.02;100.00
31092;BME280;67728;53.122;12.776;2024-01-30T01:16:47;101938.50;;;-1.03;100.00
31092;BME280;67728;53.122;12.776;2024-01-30T01:18:19;101939.38;;;-1.03;100.00
31092;BME280;67728;53.122;12.776;2024-01-30T01:19:51;101935.13;;;-1.02;100.00
31092;BME280;67728;53.122;12.776;2024-01-30T01:21:22;101933.47;;;-1.02;100.00
31092;BME280;67728;53.122;12.776;2024-01-30T01:22:53;101928.38;;;-1.02;100.00
31092;BME280;67728;53.122;12.776;2024-01-30T01:24:25;101926.50;;;-1.06;100.00
31092;BME280;67728;53.122;12.776;2024-01-30T01:25:55;101933.16;;;-1.08;100.00
31092;BME280;67728;53.122;12.776;2024-01-30T01:27:27;101926.22;;;-1.10;100.00
31092;BME280;67728;53.122;12.776;2024-01-30T01:28:58;101926.94;;;-1.13;100.00
31092;BME280;67728;53.122;12.776;2024-01-30T01:30:29;101928.56;;;-1.15;100.00
31092;BME280;67728;53.122;12.776;2024-01-30T01:32:00;101919.16;;;-1.16;100.00
31092;BME280;67728;53.122;12.776;2024-01-30T01:33:32;101918.31;;;-1.16;100.00
31092;BME280;67728;53.122;12.776;2024-01-30T01:35:04;101926.78;;;-1.16;100.00
31092;BME280;67728;53.122;12.776;2024-01-30T01:36:36;101925.94;;;-1.16;100.00
31092;BME280;67728;53.122;12.776;2024-01-30T01:38:07;101932.84;;;-1.14;100.00
31092;BME280;67728;53.122;12.776;2024-01-30T01:39:39;101929.44;;;-1.14;100.00
31092;BME280;67728;53.122;12.776;2024-01-30T01:41:09;101931.16;;;-1.13;100.00
31092;BME280;67728;53.122;12.776;2024-01-30T01:42:41;101922.59;;;-1.15;100.00
31092;BME280;67728;53.122;12.776;2024-01-30T01:44:11;101925.84;;;-1.18;100.00
31092;BME280;67728;53.122;12.776;2024-01-30T01:45:43;101930.16;;;-1.17;100.00
31092;BME280;67728;53.122;12.776;2024-01-30T01:47:14;101921.63;;;-1.17;100.00
31092;BME280;67728;53.122;12.776;2024-01-30T01:48:46;101929.34;;;-1.16;100.00
31092;BME280;67728;53.122;12.776;2024-01-30T01:50:19;101922.53;;;-1.17;100.00
31092;BME280;67728;53.122;12.776;2024-01-30T01:51:54;101922.41;;;-1.18;100.00
31092;BME280;67728;53.122;12.776;2024-01-30T01:53:27;101919.81;;;-1.20;100.00
31092;BME280;67728;53.122;12.776;2024-01-30T01:54:58;101925.63;;;-1.23;100.00
31092;BME280;67728;53.122;12.776;2024-01-30T01:56:30;101916.16;;;-1.25;100.00
31092;BME280;67728;53.122;12.776;2024-01-30T01:58:02;101914.41;;;-1.26;100.00
31092;BME280;67728;53.122;12.776;2024-01-30T01:59:33;101916.94;;;-1.26;100.00
31092;BME280;67728;53.122;12.776;2024-01-30T02:01:04;101921.09;;;-1.28;100.00
31092;BME280;67728;53.122;12.776;2024-01-30T02:02:36;101920.22;;;-1.29;100.00
31092;BME280;67728;53.122;12.776;2024-01-30T02:04:08;101916.78;;;-1.29;100.00
31092;BME280;67728;53.122;12.776;2024-01-30T02:05:41;101919.34;;;-1.29;100.00
31092;BME280;67728;53.122;12.776;2024-01-30T02:07:13;101916.00;;;-1.28;100.00
31092;BME280;67728;53.122;12.776;2024-01-30T02:08:44;101915.22;;;-1.27;100.00
31092;BME280;67728;53.122;12.776;2024-01-30T02:10:15;101920.38;;;-1.26;100.00
31092;BME280;67728;53.122;12.776;2024-01-30T02:11:46;101917.84;;;-1.26;100.00
31092;BME280;67728;53.122;12.776;2024-01-30T02:13:17;101913.63;;;-1.25;100.00
31092;BME280;67728;53.122;12.776;2024-01-30T02:14:49;101917.03;;;-1.25;100.00
31092;BME280;67728;53.122;12.776;2024-01-30T02:16:21;101916.16;;;-1.25;100.00
31092;BME280;67728;53.122;12.776;2024-01-30T02:17:52;101911.84;;;-1.26;100.00
31092;BME280;67728;53.122;12.776;2024-01-30T02:19:23;101914.41;;;-1.26;100.00
31092;BME280;67728;53.122;12.776;2024-01-30T02:20:56;101912.69;;;-1.27;100.00
31092;BME280;67728;53.122;12.776;2024-01-30T02:22:33;101914.25;;;-1.29;100.00
31092;BME280;67728;53.122;12.776;2024-01-30T02:24:04;101919.50;;;-1.26;100.00
31092;BME280;67728;53.122;12.776;2024-01-30T02:25:38;101913.53;;;-1.27;100.00
31092;BME280;67728;53.122;12.776;2024-01-30T02:27:14;101911.84;;;-1.26;100.00
31092;BME280;67728;53.122;12.776;2024-01-30T02:28:44;101911.78;;;-1.28;100.00
31092;BME280;67728;53.122;12.776;2024-01-30T02:30:16;101911.84;;;-1.26;100.00
31092;BME280;67728;53.122;12.776;2024-01-30T02:31:47;101913.47;;;-1.28;100.00
31092;BME280;67728;53.122;12.776;2024-01-30T02:33:18;101913.47;;;-1.28;100.00
31092;BME280;67728;53.122;12.776;2024-01-30T02:34:49;101918.53;;;-1.28;100.00
31092;BME280;67728;53.122;12.776;2024-01-30T02:36:21;101914.34;;;-1.28;100.00
31092;BME280;67728;53.122;12.776;2024-01-30T02:37:53;101913.53;;;-1.27;100.00
31092;BME280;67728;53.122;12.776;2024-01-30T02:39:24;101915.28;;;-1.26;100.00
31092;BME280;67728;53.122;12.776;2024-01-30T02:40:55;101916.00;;;-1.28;100.00
31092;BME280;67728;53.122;12.776;2024-01-30T02:42:27;101912.34;;;-1.33;100.00
31092;BME280;67728;53.122;12.776;2024-01-30T02:43:57;101909.66;;;-1.36;100.00
31092;BME280;67728;53.122;12.776;2024-01-30T02:45:29;101915.84;;;-1.31;100.00
31092;BME280;67728;53.122;12.776;2024-01-30T02:46:59;101918.44;;;-1.30;100.00
31092;BME280;67728;53.122;12.776;2024-01-30T02:48:31;101916.00;;;-1.28;100.00
31092;BME280;67728;53.122;12.776;2024-01-30T02:50:02;101912.50;;;-1.30;100.00
31092;BME280;67728;53.122;12.776;2024-01-30T02:51:34;101910.91;;;-1.28;100.00
31092;BME280;67728;53.122;12.776;2024-01-30T02:53:06;101912.56;;;-1.29;100.00
31092;BME280;67728;53.122;12.776;2024-01-30T02:54:37;101910.13;;;-1.27;100.00
31092;BME280;67728;53.122;12.776;2024-01-30T02:56:08;101910.97;;;-1.27;100.00
31092;BME280;67728;53.122;12.776;2024-01-30T02:57:40;101910.19;;;-1.26;100.00
31092;BME280;67728;53.122;12.776;2024-01-30T02:59:11;101906.00;;;-1.25;100.00
31092;BME280;67728;53.122;12.776;2024-01-30T03:00:42;101907.72;;;-1.24;100.00
31092;BME280;67728;53.122;12.776;2024-01-30T03:02:14;101907.72;;;-1.24;100.00
31092;BME280;67728;53.122;12.776;2024-01-30T03:03:44;101902.63;;;-1.24;100.00
31092;BME280;67728;53.122;12.776;2024-01-30T03:05:16;101901.78;;;-1.25;100.00
31092;BME280;67728;53.122;12.776;2024-01-30T03:06:47;101907.66;;;-1.26;100.00
31092;BME280;67728;53.122;12.776;2024-01-30T03:08:20;101906.78;;;-1.26;100.00
31092;BME280;67728;53.122;12.776;2024-01-30T03:09:51;101908.44;;;-1.27;100.00
31092;BME280;67728;53.122;12.776;2024-01-30T03:11:22;101908.44;;;-1.27;100.00
31092;BME280;67728;53.122;12.776;2024-01-30T03:12:53;101904.16;;;-1.28;100.00
31092;BME280;67728;53.122;12.776;2024-01-30T03:14:25;101911.97;;;-1.25;100.00
31092;BME280;67728;53.122;12.776;2024-01-30T03:15:55;101908.59;;;-1.24;100.00
31092;BME280;67728;53.122;12.776;2024-01-30T03:17:27;101911.06;;;-1.25;100.00
31092;BME280;67728;53.122;12.776;2024-01-30T03:18:58;101915.34;;;-1.24;100.00
31092;BME280;67728;53.122;12.776;2024-01-30T03:20:31;101914.50;;;-1.25;100.00
31092;BME280;67728;53.122;12.776;2024-01-30T03:22:02;101917.16;;;-1.22;100.00
31092;BME280;67728;53.122;12.776;2024-01-30T03:23:35;101918.88;;;-1.22;100.00
31092;BME280;67728;53.122;12.776;2024-01-30T03:25:06;101918.78;;;-1.24;100.00
31092;BME280;67728;53.122;12.776;2024-01-30T03:26:38;101916.00;;;-1.28;100.00
31092;BME280;67728;53.122;12.776;2024-01-30T03:28:08;101912.50;;;-1.30;100.00
31092;BME280;67728;53.122;12.776;2024-01-30T03:29:40;101910.75;;;-1.31;100.00
31092;BME280;67728;53.122;12.776;2024-01-30T03:31:13;101914.09;;;-1.32;100.00
31092;BME280;67728;53.122;12.776;2024-01-30T03:32:45;101912.34;;;-1.33;100.00
31092;BME280;67728;53.122;12.776;2024-01-30T03:34:15;101911.47;;;-1.34;100.00
31092;BME280;67728;53.122;12.776;2024-01-30T03:35:47;101913.13;;;-1.34;100.00
31092;BME280;67728;53.122;12.776;2024-01-30T03:37:18;101908.84;;;-1.35;100.00
31092;BME280;67728;53.122;12.776;2024-01-30T03:38:50;101906.38;;;-1.34;100.00
31092;BME280;67728;53.122;12.776;2024-01-30T03:40:21;101906.38;;;-1.34;100.00
31092;BME280;67728;53.122;12.776;2024-01-30T03:41:53;101903.75;;;-1.35;100.00
31092;BME280;67728;53.122;12.776;2024-01-30T03:43:23;101905.44;;;-1.36;100.00
31092;BME280;67728;53.122;12.776;2024-01-30T03:44:56;101909.00;;;-1.32;100.00
31092;BME280;67728;53.122;12.776;2024-01-30T03:46:27;101904.88;;;-1.30;100.00
31092;BME280;67728;53.122;12.776;2024-01-30T03:47:59;101908.44;;;-1.27;100.00
31092;BME280;67728;53.122;12.776;2024-01-30T03:49:30;101908.53;;;-1.25;100.00
31092;BME280;67728;53.122;12.776;2024-01-30T03:51:01;101903.44;;;-1.25;100.00
31092;BME280;67728;53.122;12.776;2024-01-30T03:52:32;101909.31;;;-1.26;100.00
31092;BME280;67728;53.122;12.776;2024-01-30T03:54:05;101902.50;;;-1.27;100.00
31092;BME280;67728;53.122;12.776;2024-01-30T03:55:35;101903.19;;;-1.30;100.00
31092;BME280;67728;53.122;12.776;2024-01-30T03:57:07;101906.59;;;-1.29;100.00
31092;BME280;67728;53.122;12.776;2024-01-30T03:58:38;101907.59;;;-1.27;100.00
31092;BME280;67728;53.122;12.776;2024-01-30T04:00:10;101907.59;;;-1.27;100.00
31092;BME280;67728;53.122;12.776;2024-01-30T04:01:41;101903.34;;;-1.27;100.00
31092;BME280;67728;53.122;12.776;2024-01-30T04:03:14;101905.03;;;-1.27;100.00
31092;BME280;67728;53.122;12.776;2024-01-30T04:04:45;101901.69;;;-1.26;100.00
31092;BME280;67728;53.122;12.776;2024-01-30T04:06:17;101902.63;;;-1.24;100.00
31092;BME280;67728;53.122;12.776;2024-01-30T04:07:47;101900.97;;;-1.24;100.00
31092;BME280;67728;53.122;12.776;2024-01-30T04:09:20;101899.22;;;-1.25;100.00
31092;BME280;67728;53.122;12.776;2024-01-30T04:10:51;101905.25;;;-1.23;100.00
31092;BME280;67728;53.122;12.776;2024-01-30T04:12:22;101895.09;;;-1.23;100.00
31092;BME280;67728;53.122;12.776;2024-01-30T04:13:53;101902.78;;;-1.21;100.00
31092;BME280;67728;53.122;12.776;2024-01-30T04:15:25;101890.56;;;-1.28;100.00
31092;BME280;67728;53.122;12.776;2024-01-30T04:16:55;101894.88;;;-1.27;100.00
31092;BME280;67728;53.122;12.776;2024-01-30T04:18:27;101901.78;;;-1.25;100.00
31092;BME280;67728;53.122;12.776;2024-01-30T04:19:57;101896.69;;;-1.25;100.00
31092;BME280;67728;53.122;12.776;2024-01-30T04:21:29;101893.41;;;-1.22;100.00
31092;BME280;67728;53.122;12.776;2024-01-30T04:22:59;101897.63;;;-1.23;100.00
31092;BME280;67728;53.122;12.776;2024-01-30T04:24:32;101902.63;;;-1.24;100.00
31092;BME280;67728;53.122;12.776;2024-01-30T04:26:03;101894.19;;;-1.23;100.00
31092;BME280;67728;53.122;12.776;2024-01-30T04:27:35;101896.75;;;-1.23;100.00
31092;BME280;67728;53.122;12.776;2024-01-30T04:29:05;101893.16;;;-1.27;100.00
31092;BME280;67728;53.122;12.776;2024-01-30T04:30:37;101893.09;;;-1.28;100.00
31092;BME280;67728;53.122;12.776;2024-01-30T04:32:08;101888.72;;;-1.31;100.00
31092;BME280;67728;53.122;12.776;2024-01-30T04:33:40;101893.81;;;-1.31;100.00
31092;BME280;67728;53.122;12.776;2024-01-30T04:35:11;101891.28;;;-1.31;100.00
31092;BME280;67728;53.122;12.776;2024-01-30T04:36:44;101894.59;;;-1.32;100.00
31092;BME280;67728;53.122;12.776;2024-01-30T04:38:15;101891.19;;;-1.32;100.00
31092;BME280;67728;53.122;12.776;2024-01-30T04:39:47;101900.41;;;-1.34;100.00
31092;BME280;67728;53.122;12.776;2024-01-30T04:41:19;101890.06;;;-1.37;100.00
31092;BME280;67728;53.122;12.776;2024-01-30T04:42:49;101889.28;;;-1.36;100.00
31092;BME280;67728;53.122;12.776;2024-01-30T04:44:21;101891.03;;;-1.35;100.00
31092;BME280;67728;53.122;12.776;2024-01-30T04:45:52;101885.94;;;-1.35;100.00
31092;BME280;67728;53.122;12.776;2024-01-30T04:47:23;101880.06;;;-1.34;100.00
31092;BME280;67728;53.122;12.776;2024-01-30T04:48:54;101887.84;;;-1.31;100.00
31092;BME280;67728;53.122;12.776;2024-01-30T04:50:25;101877.75;;;-1.30;100.00
31092;BME280;67728;53.122;12.776;2024-01-30T04:51:57;101885.47;;;-1.28;100.00
31092;BME280;67728;53.122;12.776;2024-01-30T04:53:30;101889.84;;;-1.26;100.00
31092;BME280;67728;53.122;12.776;2024-01-30T04:55:02;101892.44;;;-1.24;100.00
31092;BME280;67728;53.122;12.776;2024-01-30T04:56:34;101887.34;;;-1.24;100.00
31092;BME280;67728;53.122;12.776;2024-01-30T04:58:05;101885.69;;;-1.24;100.00
31092;BME280;67728;53.122;12.776;2024-01-30T04:59:38;101892.44;;;-1.24;100.00
31092;BME280;67728;53.122;12.776;2024-01-30T05:01:08;101891.66;;;-1.23;100.00
31092;BME280;67728;53.122;12.776;2024-01-30T05:02:40;101891.72;;;-1.22;100.00
31092;BME280;67728;53.122;12.776;2024-01-30T05:04:11;101890.94;;;-1.21;100.00
31092;BME280;67728;53.122;12.776;2024-01-30T05:05:42;101885.06;;;-1.19;100.00
31092;BME280;67728;53.122;12.776;2024-01-30T05:07:13;101889.34;;;-1.18;100.00
31092;BME280;67728;53.122;12.776;2024-01-30T05:08:44;101886.78;;;-1.18;100.00
31092;BME280;67728;53.122;12.776;2024-01-30T05:10:16;101886.78;;;-1.18;100.00
31092;BME280;67728;53.122;12.776;2024-01-30T05:11:48;101889.34;;;-1.18;100.00
31092;BME280;67728;53.122;12.776;2024-01-30T05:13:19;101890.22;;;-1.18;100.00
31092;BME280;67728;53.122;12.776;2024-01-30T05:14:50;101886.78;;;-1.18;100.00
31092;BME280;67728;53.122;12.776;2024-01-30T05:16:21;101883.31;;;-1.21;100.00
31092;BME280;67728;53.122;12.776;2024-01-30T05:17:53;101872.25;;;-1.21;100.00
31092;BME280;67728;53.122;12.776;2024-01-30T05:19:25;101879.88;;;-1.21;100.00
31092;BME280;67728;53.122;12.776;2024-01-30T05:20:56;101879.09;;;-1.20;100.00
31092;BME280;67728;53.122;12.776;2024-01-30T05:22:27;101880.13;;;-1.16;100.00
31092;BME280;67728;53.122;12.776;2024-01-30T05:23:58;101874.31;;;-1.14;100.00
31092;BME280;67728;53.122;12.776;2024-01-30T05:25:31;101874.47;;;-1.11;100.00
31092;BME280;67728;53.122;12.776;2024-01-30T05:27:01;101877.09;;;-1.09;100.00
31092;BME280;67728;53.122;12.776;2024-01-30T05:28:33;101879.84;;;-1.05;100.00
31092;BME280;67728;53.122;12.776;2024-01-30T05:30:06;101880.81;;;-1.03;100.00
31092;BME280;67728;53.122;12.776;2024-01-30T05:31:37;101877.53;;;-1.00;100.00
31092;BME280;67728;53.122;12.776;2024-01-30T05:33:09;101875.06;;;-0.99;100.00
31092;BME280;67728;53.122;12.776;2024-01-30T05:34:39;101887.00;;;-0.98;100.00
31092;BME280;67728;53.122;12.776;2024-01-30T05:36:11;101874.28;;;-0.98;100.00
31092;BME280;67728;53.122;12.776;2024-01-30T05:37:42;101875.94;;;-0.98;100.00
31092;BME280;67728;53.122;12.776;2024-01-30T05:39:14;101869.97;;;-0.99;100.00
31092;BME280;67728;53.122;12.776;2024-01-30T05:40:46;101873.31;;;-1.00;100.00
31092;BME280;67728;53.122;12.776;2024-01-30T05:42:17;101872.47;;;-1.00;100.00
31092;BME280;67728;53.122;12.776;2024-01-30T05:43:48;101882.63;;;-1.00;100.00
31092;BME280;67728;53.122;12.776;2024-01-30T05:45:20;101880.81;;;-1.03;100.00
31092;BME280;67728;53.122;12.776;2024-01-30T05:46:51;101881.59;;;-1.04;100.00
31092;BME280;67728;53.122;12.776;2024-01-30T05:48:22;101881.44;;;-1.07;100.00
31092;BME280;67728;53.122;12.776;2024-01-30T05:49:54;101885.34;;;-1.13;100.00
31092;BME280;67728;53.122;12.776;2024-01-30T05:51:24;101882.75;;;-1.15;100.00
31092;BME280;67728;53.122;12.776;2024-01-30T05:52:56;101884.34;;;-1.17;100.00
31092;BME280;67728;53.122;12.776;2024-01-30T05:54:26;101880.91;;;-1.17;100.00
31092;BME280;67728;53.122;12.776;2024-01-30T05:55:59;101882.75;;;-1.15;100.00
31092;BME280;67728;53.122;12.776;2024-01-30T05:57:30;101881.94;;;-1.14;100.00
31092;BME280;67728;53.122;12.776;2024-01-30T05:59:02;101885.34;;;-1.13;100.00
31092;BME280;67728;53.122;12.776;2024-01-30T06:00:33;101882.75;;;-1.15;100.00
31092;BME280;67728;53.122;12.776;2024-01-30T06:02:04;101887.81;;;-1.15;100.00
31092;BME280;67728;53.122;12.776;2024-01-30T06:03:35;101883.47;;;-1.17;100.00
31092;BME280;67728;53.122;12.776;2024-01-30T06:05:08;101880.84;;;-1.19;100.00
31092;BME280;67728;53.122;12.776;2024-01-30T06:06:40;101880.84;;;-1.19;100.00
31092;BME280;67728;53.122;12.776;2024-01-30T06:08:10;101883.31;;;-1.21;100.00
31092;BME280;67728;53.122;12.776;2024-01-30T06:09:42;101879.00;;;-1.22;100.00
31092;BME280;67728;53.122;12.776;2024-01-30T06:11:14;101885.78;;;-1.22;100.00
31092;BME280;67728;53.122;12.776;2024-01-30T06:12:45;101880.53;;;-1.25;100.00
31092;BME280;67728;53.122;12.776;2024-01-30T06:14:18;101883.09;;;-1.25;100.00
31092;BME280;67728;53.122;12.776;2024-01-30T06:15:50;101878.00;;;-1.25;100.00
31092;BME280;67728;53.122;12.776;2024-01-30T06:17:20;101876.31;;;-1.25;100.00
31092;BME280;67728;53.122;12.776;2024-01-30T06:18:52;101886.41;;;-1.26;100.00
31092;BME280;67728;53.122;12.776;2024-01-30T06:20:22;101878.94;;;-1.23;100.00
31092;BME280;67728;53.122;12.776;2024-01-30T06:21:54;101881.47;;;-1.23;100.00
31092;BME280;67728;53.122;12.776;2024-01-30T06:23:27;101881.41;;;-1.25;100.00
31092;BME280;67728;53.122;12.776;2024-01-30T06:24:58;101890.72;;;-1.25;100.00
31092;BME280;67728;53.122;12.776;2024-01-30T06:26:31;101883.09;;;-1.25;100.00
31092;BME280;67728;53.122;12.776;2024-01-30T06:28:01;101883.88;;;-1.26;100.00
31092;BME280;67728;53.122;12.776;2024-01-30T06:29:33;101877.13;;;-1.26;100.00
31092;BME280;67728;53.122;12.776;2024-01-30T06:31:04;101886.41;;;-1.26;100.00
31092;BME280;67728;53.122;12.776;2024-01-30T06:32:35;101883.09;;;-1.25;100.00
31092;BME280;67728;53.122;12.776;2024-01-30T06:34:06;101881.41;;;-1.25;100.00
31092;BME280;67728;53.122;12.776;2024-01-30T06:35:38;101880.69;;;-1.22;100.00
31092;BME280;67728;53.122;12.776;2024-01-30T06:37:10;101882.41;;;-1.21;100.00
31092;BME280;67728;53.122;12.776;2024-01-30T06:38:42;101874.00;;;-1.20;100.00
31092;BME280;67728;53.122;12.776;2024-01-30T06:40:14;101879.97;;;-1.19;100.00
31092;BME280;67728;53.122;12.776;2024-01-30T06:41:46;101877.50;;;-1.18;100.00
31092;BME280;67728;53.122;12.776;2024-01-30T06:43:17;101875.81;;;-1.17;100.00
31092;BME280;67728;53.122;12.776;2024-01-30T06:44:48;101879.25;;;-1.17;100.00
31092;BME280;67728;53.122;12.776;2024-01-30T06:46:20;101873.34;;;-1.16;100.00
31092;BME280;67728;53.122;12.776;2024-01-30T06:47:50;101876.88;;;-1.14;100.00
31092;BME280;67728;53.122;12.776;2024-01-30T06:49:22;101873.66;;;-1.10;100.00
31092;BME280;67728;53.122;12.776;2024-01-30T06:50:53;101872.88;;;-1.09;100.00
31092;BME280;67728;53.122;12.776;2024-01-30T06:52:25;101867.94;;;-1.06;100.00
31092;BME280;67728;53.122;12.776;2024-01-30T06:53:55;101855.22;;;-1.06;100.00
31092;BME280;67728;53.122;12.776;2024-01-30T06:55:27;101855.38;;;-1.03;100.00
31092;BME280;67728;53.122;12.776;2024-01-30T06:56:59;101859.78;;;-0.99;100.00
31092;BME280;67728;53.122;12.776;2024-01-30T06:58:31;101856.31;;;-1.01;100.00
31092;BME280;67728;53.122;12.776;2024-01-30T07:00:03;101851.44;;;-0.96;100.00
31092;BME280;67728;53.122;12.776;2024-01-30T07:01:34;101853.25;;;-0.94;100.00
31092;BME280;67728;53.122;12.776;2024-01-30T07:03:05;101853.59;;;-0.86;100.00
31092;BME280;67728;53.122;12.776;2024-01-30T07:04:37;101859.94;;;-0.78;100.00
31092;BME280;67728;53.122;12.776;2024-01-30T07:06:08;101865.44;;;-0.71;100.00
31092;BME280;67728;53.122;12.776;2024-01-30T07:07:39;101867.41;;;-0.65;100.00
31092;BME280;67728;53.122;12.776;2024-01-30T07:09:10;101866.69;;;-0.63;100.00
31092;BME280;67728;53.122;12.776;2024-01-30T07:10:42;101870.16;;;-0.61;100.00
31092;BME280;67728;53.122;12.776;2024-01-30T07:12:14;101873.50;;;-0.62;100.00
31092;BME280;67728;53.122;12.776;2024-01-30T07:13:45;101869.28;;;-0.61;100.00
31092;BME280;67728;53.122;12.776;2024-01-30T07:15:17;101863.97;;;-0.66;100.00
31092;BME280;67728;53.122;12.776;2024-01-30T07:16:50;101863.16;;;-0.65;100.00
31092;BME280;67728;53.122;12.776;2024-01-30T07:18:21;101869.72;;;-0.70;100.00
31092;BME280;67728;53.122;12.776;2024-01-30T07:19:52;101870.38;;;-0.74;100.00
31092;BME280;67728;53.122;12.776;2024-01-30T07:21:23;101871.09;;;-0.76;100.00
31092;BME280;67728;53.122;12.776;2024-01-30T07:22:58;101868.56;;;-0.76;100.00
31092;BME280;67728;53.122;12.776;2024-01-30T07:24:29;101867.75;;;-0.75;100.00
31092;BME280;67728;53.122;12.776;2024-01-30T07:26:01;101868.63;;;-0.75;100.00
31092;BME280;67728;53.122;12.776;2024-01-30T07:27:33;101864.31;;;-0.76;100.00
31092;BME280;67728;53.122;12.776;2024-01-30T07:29:04;101866.84;;;-0.76;100.00
31092;BME280;67728;53.122;12.776;2024-01-30T07:30:35;101863.38;;;-0.78;100.00
31092;BME280;67728;53.122;12.776;2024-01-30T07:32:07;101863.47;;;-0.76;100.00
31092;BME280;67728;53.122;12.776;2024-01-30T07:33:37;101870.38;;;-0.74;100.00
31092;BME280;67728;53.122;12.776;2024-01-30T07:35:09;101861.19;;;-0.70;100.00
31092;BME280;67728;53.122;12.776;2024-01-30T07:36:41;101855.38;;;-0.68;100.00
31092;BME280;67728;53.122;12.776;2024-01-30T07:38:12;101854.56;;;-0.67;100.00
31092;BME280;67728;53.122;12.776;2024-01-30T07:39:44;101866.81;;;-0.59;100.00
31092;BME280;67728;53.122;12.776;2024-01-30T07:41:15;101856.03;;;-0.54;100.00
31092;BME280;67728;53.122;12.776;2024-01-30T07:42:48;101858.97;;;-0.46;100.00
31092;BME280;67728;53.122;12.776;2024-01-30T07:44:19;101855.88;;;-0.39;100.00
31092;BME280;67728;53.122;12.776;2024-01-30T07:45:51;101856.19;;;-0.33;100.00